sensor_id;sensor_type;location;lat;lon;timestamp;P1;durP1;ratioP1;P2;durP2;ratioP2
65373;SDS011;52070;53.760;9.678;2023-05-14T00:02:06;9.85;;;5.32;;
65373;SDS011;52070;53.760;9.678;2023-05-14T00:04:33;9.27;;;5.20;;
65373;SDS011;52070;53.760;9.678;2023-05-14T00:07:00;7.97;;;4.28;;
65373;SDS011;52070;53.760;9.678;2023-05-14T00:09:27;11.50;;;5.10;;
65373;SDS011;52070;53.760;9.678;2023-05-14T00:11:54;9.15;;;4.57;;
65373;SDS011;52070;53.760;9.678;2023-05-14T00:14:21;11.32;;;4.75;;
65373;SDS011;52070;53.760;9.678;2023-05-14T00:16:48;7.20;;;4.90;;
65373;SDS011;52070;53.760;9.678;2023-05-14T00:19:17;8.00;;;5.05;;
65373;SDS011;52070;53.760;9.678;2023-05-14T00:21:44;7.60;;;5.00;;
65373;SDS011;52070;53.760;9.678;2023-05-14T00:24:11;10.55;;;5.05;;
65373;SDS011;52070;53.760;9.678;2023-05-14T00:26:38;9.32;;;4.68;;
65373;SDS011;52070;53.760;9.678;2023-05-14T00:29:04;8.00;;;4.95;;
65373;SDS011;52070;53.760;9.678;2023-05-14T00:31:31;7.65;;;4.47;;
65373;SDS011;52070;53.760;9.678;2023-05-14T00:33:58;6.93;;;4.70;;
65373;SDS011;52070;53.760;9.678;2023-05-14T00:36:27;8.73;;;4.85;;
65373;SDS011;52070;53.760;9.678;2023-05-14T00:38:54;7.30;;;4.82;;
65373;SDS011;52070;53.760;9.678;2023-05-14T00:41:21;7.55;;;4.80;;
65373;SDS011;52070;53.760;9.678;2023-05-14T00:43:48;7.60;;;4.57;;
65373;SDS011;52070;53.760;9.678;2023-05-14T00:46:15;6.70;;;4.70;;
65373;SDS011;52070;53.760;9.678;2023-05-14T00:48:42;8.27;;;4.47;;
65373;SDS011;52070;53.760;9.678;2023-05-14T00:51:10;6.20;;;4.50;;
65373;SDS011;52070;53.760;9.678;2023-05-14T00:53:38;8.20;;;5.00;;
65373;SDS011;52070;53.760;9.678;2023-05-14T00:56:05;10.25;;;4.95;;
65373;SDS011;52070;53.760;9.678;2023-05-14T00:58:33;7.28;;;4.75;;
65373;SDS011;52070;53.760;9.678;2023-05-14T01:01:00;6.78;;;4.63;;
65373;SDS011;52070;53.760;9.678;2023-05-14T01:03:27;9.43;;;5.10;;
65373;SDS011;52070;53.760;9.678;2023-05-14T01:05:57;7.20;;;4.50;;
65373;SDS011;52070;53.760;9.678;2023-05-14T01:08:35;7.13;;;5.03;;
65373;SDS011;52070;53.760;9.678;2023-05-14T01:11:12;7.88;;;4.63;;
65373;SDS011;52070;53.760;9.678;2023-05-14T01:13:47;7.68;;;4.60;;
65373;SDS011;52070;53.760;9.678;2023-05-14T01:16:19;10.10;;;5.00;;
65373;SDS011;52070;53.760;9.678;2023-05-14T01:21:24;5.90;;;4.47;;
65373;SDS011;52070;53.760;9.678;2023-05-14T01:23:59;7.25;;;4.20;;
65373;SDS011;52070;53.760;9.678;2023-05-14T01:26:26;7.60;;;4.57;;
65373;SDS011;52070;53.760;9.678;2023-05-14T01:28:54;6.40;;;5.00;;
65373;SDS011;52070;53.760;9.678;2023-05-14T01:31:26;9.27;;;4.75;;
65373;SDS011;52070;53.760;9.678;2023-05-14T01:33:54;5.80;;;4.50;;
65373;SDS011;52070;53.760;9.678;2023-05-14T01:36:25;7.82;;;4.63;;
65373;SDS011;52070;53.760;9.678;2023-05-14T01:38:54;7.70;;;4.35;;
65373;SDS011;52070;53.760;9.678;2023-05-14T01:41:22;6.22;;;4.57;;
65373;SDS011;52070;53.760;9.678;2023-05-14T01:43:51;6.38;;;4.72;;
65373;SDS011;52070;53.760;9.678;2023-05-14T01:46:18;6.93;;;4.50;;
65373;SDS011;52070;53.760;9.678;2023-05-14T01:48:46;5.60;;;4.70;;
65373;SDS011;52070;53.760;9.678;2023-05-14T01:51:13;6.55;;;4.90;;
65373;SDS011;52070;53.760;9.678;2023-05-14T01:53:41;6.85;;;4.82;;
65373;SDS011;52070;53.760;9.678;2023-05-14T01:56:08;8.10;;;5.38;;
65373;SDS011;52070;53.760;9.678;2023-05-14T01:58:35;9.70;;;5.05;;
65373;SDS011;52070;53.760;9.678;2023-05-14T02:01:02;9.82;;;4.90;;
65373;SDS011;52070;53.760;9.678;2023-05-14T02:03:29;6.68;;;4.78;;
65373;SDS011;52070;53.760;9.678;2023-05-14T02:05:55;8.18;;;5.43;;
65373;SDS011;52070;53.760;9.678;2023-05-14T02:08:22;10.63;;;5.45;;
65373;SDS011;52070;53.760;9.678;2023-05-14T02:10:51;6.18;;;4.80;;
65373;SDS011;52070;53.760;9.678;2023-05-14T02:13:18;10.90;;;5.22;;
65373;SDS011;52070;53.760;9.678;2023-05-14T02:15:45;8.25;;;5.28;;
65373;SDS011;52070;53.760;9.678;2023-05-14T02:18:12;6.90;;;5.15;;
65373;SDS011;52070;53.760;9.678;2023-05-14T02:20:39;7.43;;;5.25;;
65373;SDS011;52070;53.760;9.678;2023-05-14T02:23:06;8.30;;;5.60;;
65373;SDS011;52070;53.760;9.678;2023-05-14T02:25:33;6.90;;;5.03;;
65373;SDS011;52070;53.760;9.678;2023-05-14T02:28:02;10.82;;;5.82;;
65373;SDS011;52070;53.760;9.678;2023-05-14T02:30:29;8.32;;;5.22;;
65373;SDS011;52070;53.760;9.678;2023-05-14T02:32:56;11.35;;;5.38;;
65373;SDS011;52070;53.760;9.678;2023-05-14T02:35:23;10.55;;;5.85;;
65373;SDS011;52070;53.760;9.678;2023-05-14T02:37:50;6.50;;;5.03;;
65373;SDS011;52070;53.760;9.678;2023-05-14T02:40:17;7.07;;;5.20;;
65373;SDS011;52070;53.760;9.678;2023-05-14T02:42:44;6.68;;;5.10;;
65373;SDS011;52070;53.760;9.678;2023-05-14T02:45:12;6.68;;;5.10;;
65373;SDS011;52070;53.760;9.678;2023-05-14T02:47:39;6.75;;;5.20;;
65373;SDS011;52070;53.760;9.678;2023-05-14T02:50:07;7.53;;;5.35;;
65373;SDS011;52070;53.760;9.678;2023-05-14T02:52:35;8.00;;;5.40;;
65373;SDS011;52070;53.760;9.678;2023-05-14T02:55:02;8.90;;;5.78;;
65373;SDS011;52070;53.760;9.678;2023-05-14T02:57:30;8.98;;;5.80;;
65373;SDS011;52070;53.760;9.678;2023-05-14T02:59:57;6.97;;;4.93;;
65373;SDS011;52070;53.760;9.678;2023-05-14T03:02:25;9.80;;;5.35;;
65373;SDS011;52070;53.760;9.678;2023-05-14T03:04:52;10.77;;;5.57;;
65373;SDS011;52070;53.760;9.678;2023-05-14T03:07:19;10.43;;;5.72;;
65373;SDS011;52070;53.760;9.678;2023-05-14T03:09:46;6.90;;;5.40;;
65373;SDS011;52070;53.760;9.678;2023-05-14T03:12:13;8.43;;;5.53;;
65373;SDS011;52070;53.760;9.678;2023-05-14T03:14:40;7.97;;;5.75;;
65373;SDS011;52070;53.760;9.678;2023-05-14T03:17:07;12.20;;;5.78;;
65373;SDS011;52070;53.760;9.678;2023-05-14T03:19:35;10.77;;;5.65;;
65373;SDS011;52070;53.760;9.678;2023-05-14T03:22:02;6.43;;;5.60;;
65373;SDS011;52070;53.760;9.678;2023-05-14T03:24:30;11.88;;;5.85;;
65373;SDS011;52070;53.760;9.678;2023-05-14T03:26:57;8.27;;;5.47;;
65373;SDS011;52070;53.760;9.678;2023-05-14T03:29:23;7.60;;;5.18;;
65373;SDS011;52070;53.760;9.678;2023-05-14T03:31:50;6.55;;;5.55;;
65373;SDS011;52070;53.760;9.678;2023-05-14T03:34:18;12.30;;;6.28;;
65373;SDS011;52070;53.760;9.678;2023-05-14T03:36:47;8.63;;;5.90;;
65373;SDS011;52070;53.760;9.678;2023-05-14T03:39:14;7.57;;;5.65;;
65373;SDS011;52070;53.760;9.678;2023-05-14T03:41:44;7.50;;;5.40;;
65373;SDS011;52070;53.760;9.678;2023-05-14T03:44:11;8.70;;;5.93;;
65373;SDS011;52070;53.760;9.678;2023-05-14T03:46:38;7.72;;;5.78;;
65373;SDS011;52070;53.760;9.678;2023-05-14T03:49:05;10.77;;;5.65;;
65373;SDS011;52070;53.760;9.678;2023-05-14T03:51:32;8.63;;;5.65;;
65373;SDS011;52070;53.760;9.678;2023-05-14T03:54:02;11.50;;;5.53;;
65373;SDS011;52070;53.760;9.678;2023-05-14T03:56:29;9.55;;;6.10;;
65373;SDS011;52070;53.760;9.678;2023-05-14T03:58:56;8.65;;;6.05;;
65373;SDS011;52070;53.760;9.678;2023-05-14T04:01:23;7.18;;;5.35;;
65373;SDS011;52070;53.760;9.678;2023-05-14T04:03:50;8.35;;;5.70;;
65373;SDS011;52070;53.760;9.678;2023-05-14T04:06:17;8.20;;;5.63;;
65373;SDS011;52070;53.760;9.678;2023-05-14T04:08:44;12.35;;;5.80;;
65373;SDS011;52070;53.760;9.678;2023-05-14T04:11:12;10.10;;;5.90;;
65373;SDS011;52070;53.760;9.678;2023-05-14T04:13:39;7.03;;;5.35;;
65373;SDS011;52070;53.760;9.678;2023-05-14T04:16:06;8.38;;;5.40;;
65373;SDS011;52070;53.760;9.678;2023-05-14T04:18:33;12.43;;;5.68;;
65373;SDS011;52070;53.760;9.678;2023-05-14T04:21:00;11.85;;;5.88;;
65373;SDS011;52070;53.760;9.678;2023-05-14T04:23:27;9.18;;;5.40;;
65373;SDS011;52070;53.760;9.678;2023-05-14T04:25:56;8.18;;;5.38;;
65373;SDS011;52070;53.760;9.678;2023-05-14T04:28:24;11.95;;;5.43;;
65373;SDS011;52070;53.760;9.678;2023-05-14T04:30:51;6.95;;;5.35;;
65373;SDS011;52070;53.760;9.678;2023-05-14T04:33:18;9.27;;;5.35;;
65373;SDS011;52070;53.760;9.678;2023-05-14T04:35:45;9.60;;;5.68;;
65373;SDS011;52070;53.760;9.678;2023-05-14T04:38:13;6.10;;;5.20;;
65373;SDS011;52070;53.760;9.678;2023-05-14T04:40:40;9.85;;;5.03;;
65373;SDS011;52070;53.760;9.678;2023-05-14T04:43:07;11.95;;;5.60;;
65373;SDS011;52070;53.760;9.678;2023-05-14T04:45:35;12.00;;;5.10;;
65373;SDS011;52070;53.760;9.678;2023-05-14T04:48:02;6.38;;;4.75;;
65373;SDS011;52070;53.760;9.678;2023-05-14T04:50:32;10.68;;;4.93;;
65373;SDS011;52070;53.760;9.678;2023-05-14T04:52:59;7.75;;;5.03;;
65373;SDS011;52070;53.760;9.678;2023-05-14T04:55:26;6.07;;;5.25;;
65373;SDS011;52070;53.760;9.678;2023-05-14T04:57:53;7.75;;;4.90;;
65373;SDS011;52070;53.760;9.678;2023-05-14T05:00:20;7.47;;;5.22;;
65373;SDS011;52070;53.760;9.678;2023-05-14T05:02:49;5.22;;;4.72;;
65373;SDS011;52070;53.760;9.678;2023-05-14T05:05:16;9.02;;;5.90;;
65373;SDS011;52070;53.760;9.678;2023-05-14T05:07:43;7.47;;;5.22;;
65373;SDS011;52070;53.760;9.678;2023-05-14T05:10:10;5.45;;;4.85;;
65373;SDS011;52070;53.760;9.678;2023-05-14T05:12:37;9.32;;;4.50;;
65373;SDS011;52070;53.760;9.678;2023-05-14T05:15:04;9.70;;;4.70;;
65373;SDS011;52070;53.760;9.678;2023-05-14T05:17:31;6.35;;;4.65;;
65373;SDS011;52070;53.760;9.678;2023-05-14T05:20:00;5.53;;;4.57;;
65373;SDS011;52070;53.760;9.678;2023-05-14T05:22:29;9.30;;;4.63;;
65373;SDS011;52070;53.760;9.678;2023-05-14T05:24:56;6.60;;;4.43;;
65373;SDS011;52070;53.760;9.678;2023-05-14T05:27:24;7.93;;;4.53;;
65373;SDS011;52070;53.760;9.678;2023-05-14T05:29:51;5.88;;;4.43;;
65373;SDS011;52070;53.760;9.678;2023-05-14T05:32:18;7.38;;;4.75;;
65373;SDS011;52070;53.760;9.678;2023-05-14T05:34:45;5.43;;;4.32;;
65373;SDS011;52070;53.760;9.678;2023-05-14T05:37:13;6.30;;;4.28;;
65373;SDS011;52070;53.760;9.678;2023-05-14T05:39:40;7.97;;;4.43;;
65373;SDS011;52070;53.760;9.678;2023-05-14T05:42:07;8.95;;;4.32;;
65373;SDS011;52070;53.760;9.678;2023-05-14T05:44:34;6.43;;;4.40;;
65373;SDS011;52070;53.760;9.678;2023-05-14T05:47:01;7.43;;;4.57;;
65373;SDS011;52070;53.760;9.678;2023-05-14T05:49:28;6.22;;;4.20;;
65373;SDS011;52070;53.760;9.678;2023-05-14T05:51:55;7.65;;;4.85;;
65373;SDS011;52070;53.760;9.678;2023-05-14T05:54:24;8.52;;;4.72;;
65373;SDS011;52070;53.760;9.678;2023-05-14T05:56:51;6.03;;;4.45;;
65373;SDS011;52070;53.760;9.678;2023-05-14T05:59:18;7.32;;;4.22;;
65373;SDS011;52070;53.760;9.678;2023-05-14T06:01:45;8.02;;;4.50;;
65373;SDS011;52070;53.760;9.678;2023-05-14T06:04:12;6.85;;;4.25;;
65373;SDS011;52070;53.760;9.678;2023-05-14T06:06:39;4.50;;;3.85;;
65373;SDS011;52070;53.760;9.678;2023-05-14T06:09:06;5.13;;;4.22;;
65373;SDS011;52070;53.760;9.678;2023-05-14T06:11:35;6.32;;;4.50;;
65373;SDS011;52070;53.760;9.678;2023-05-14T06:14:02;5.80;;;4.15;;
65373;SDS011;52070;53.760;9.678;2023-05-14T06:16:29;6.20;;;4.40;;
65373;SDS011;52070;53.760;9.678;2023-05-14T06:18:56;6.95;;;4.07;;
65373;SDS011;52070;53.760;9.678;2023-05-14T06:21:22;5.00;;;4.10;;
65373;SDS011;52070;53.760;9.678;2023-05-14T06:23:49;10.23;;;4.00;;
65373;SDS011;52070;53.760;9.678;2023-05-14T06:26:16;5.70;;;4.20;;
65373;SDS011;52070;53.760;9.678;2023-05-14T06:28:45;5.15;;;3.95;;
65373;SDS011;52070;53.760;9.678;2023-05-14T06:31:12;4.93;;;4.15;;
65373;SDS011;52070;53.760;9.678;2023-05-14T06:33:39;5.43;;;3.80;;
65373;SDS011;52070;53.760;9.678;2023-05-14T06:36:06;4.97;;;3.92;;
65373;SDS011;52070;53.760;9.678;2023-05-14T06:38:33;9.00;;;3.90;;
65373;SDS011;52070;53.760;9.678;2023-05-14T06:41:00;5.38;;;3.80;;
65373;SDS011;52070;53.760;9.678;2023-05-14T06:43:27;5.10;;;4.28;;
65373;SDS011;52070;53.760;9.678;2023-05-14T06:45:56;5.72;;;4.00;;
65373;SDS011;52070;53.760;9.678;2023-05-14T06:48:23;4.35;;;3.40;;
65373;SDS011;52070;53.760;9.678;2023-05-14T06:50:52;9.95;;;4.15;;
65373;SDS011;52070;53.760;9.678;2023-05-14T06:53:19;5.97;;;3.60;;
65373;SDS011;52070;53.760;9.678;2023-05-14T06:55:46;6.93;;;3.38;;
65373;SDS011;52070;53.760;9.678;2023-05-14T06:58:13;6.38;;;3.78;;
65373;SDS011;52070;53.760;9.678;2023-05-14T07:00:40;7.78;;;3.75;;
65373;SDS011;52070;53.760;9.678;2023-05-14T07:03:08;6.70;;;3.50;;
65373;SDS011;52070;53.760;9.678;2023-05-14T07:05:35;5.90;;;3.40;;
65373;SDS011;52070;53.760;9.678;2023-05-14T07:08:02;6.70;;;3.58;;
65373;SDS011;52070;53.760;9.678;2023-05-14T07:10:29;6.65;;;3.55;;
65373;SDS011;52070;53.760;9.678;2023-05-14T07:12:57;4.15;;;3.13;;
65373;SDS011;52070;53.760;9.678;2023-05-14T07:15:24;5.32;;;3.50;;
65373;SDS011;52070;53.760;9.678;2023-05-14T07:17:50;4.63;;;3.10;;
65373;SDS011;52070;53.760;9.678;2023-05-14T07:20:19;5.28;;;3.13;;
65373;SDS011;52070;53.760;9.678;2023-05-14T07:22:48;4.20;;;3.10;;
65373;SDS011;52070;53.760;9.678;2023-05-14T07:25:15;4.00;;;2.97;;
65373;SDS011;52070;53.760;9.678;2023-05-14T07:27:42;3.67;;;2.70;;
65373;SDS011;52070;53.760;9.678;2023-05-14T07:30:09;7.65;;;2.90;;
65373;SDS011;52070;53.760;9.678;2023-05-14T07:32:36;4.40;;;3.20;;
65373;SDS011;52070;53.760;9.678;2023-05-14T07:35:04;3.45;;;2.47;;
65373;SDS011;52070;53.760;9.678;2023-05-14T07:37:33;5.20;;;2.80;;
65373;SDS011;52070;53.760;9.678;2023-05-14T07:40:00;2.95;;;2.53;;
65373;SDS011;52070;53.760;9.678;2023-05-14T07:42:27;3.25;;;2.78;;
65373;SDS011;52070;53.760;9.678;2023-05-14T07:44:54;3.95;;;2.72;;
65373;SDS011;52070;53.760;9.678;2023-05-14T07:47:21;8.38;;;2.53;;
65373;SDS011;52070;53.760;9.678;2023-05-14T07:49:48;9.15;;;2.47;;
65373;SDS011;52070;53.760;9.678;2023-05-14T07:52:15;9.68;;;2.80;;
65373;SDS011;52070;53.760;9.678;2023-05-14T07:54:43;4.35;;;2.60;;
65373;SDS011;52070;53.760;9.678;2023-05-14T07:57:10;6.80;;;2.30;;
65373;SDS011;52070;53.760;9.678;2023-05-14T07:59:37;4.22;;;2.42;;
65373;SDS011;52070;53.760;9.678;2023-05-14T08:02:04;2.95;;;2.40;;
65373;SDS011;52070;53.760;9.678;2023-05-14T08:04:31;3.55;;;2.40;;
65373;SDS011;52070;53.760;9.678;2023-05-14T08:06:58;7.28;;;2.28;;
65373;SDS011;52070;53.760;9.678;2023-05-14T08:09:25;4.70;;;2.40;;
65373;SDS011;52070;53.760;9.678;2023-05-14T08:11:53;3.47;;;2.50;;
65373;SDS011;52070;53.760;9.678;2023-05-14T08:14:20;4.13;;;2.40;;
65373;SDS011;52070;53.760;9.678;2023-05-14T08:16:47;4.18;;;2.40;;
65373;SDS011;52070;53.760;9.678;2023-05-14T08:19:14;4.18;;;2.60;;
65373;SDS011;52070;53.760;9.678;2023-05-14T08:21:41;3.38;;;2.55;;
65373;SDS011;52070;53.760;9.678;2023-05-14T08:24:08;4.07;;;2.67;;
65373;SDS011;52070;53.760;9.678;2023-05-14T08:26:35;2.72;;;2.25;;
65373;SDS011;52070;53.760;9.678;2023-05-14T08:29:04;4.63;;;2.58;;
65373;SDS011;52070;53.760;9.678;2023-05-14T08:31:31;5.10;;;2.78;;
65373;SDS011;52070;53.760;9.678;2023-05-14T08:33:58;4.05;;;2.30;;
65373;SDS011;52070;53.760;9.678;2023-05-14T08:36:25;6.88;;;2.20;;
65373;SDS011;52070;53.760;9.678;2023-05-14T08:38:52;3.25;;;2.10;;
65373;SDS011;52070;53.760;9.678;2023-05-14T08:41:19;5.03;;;2.60;;
65373;SDS011;52070;53.760;9.678;2023-05-14T08:43:49;4.32;;;2.20;;
65373;SDS011;52070;53.760;9.678;2023-05-14T08:46:24;2.47;;;2.28;;
65373;SDS011;52070;53.760;9.678;2023-05-14T08:48:55;2.55;;;2.25;;
65373;SDS011;52070;53.760;9.678;2023-05-14T08:51:28;3.05;;;2.22;;
65373;SDS011;52070;53.760;9.678;2023-05-14T08:53:56;5.32;;;2.30;;
65373;SDS011;52070;53.760;9.678;2023-05-14T08:56:28;5.72;;;2.60;;
65373;SDS011;52070;53.760;9.678;2023-05-14T08:58:58;3.88;;;2.35;;
65373;SDS011;52070;53.760;9.678;2023-05-14T09:01:26;3.40;;;2.42;;
65373;SDS011;52070;53.760;9.678;2023-05-14T09:03:54;6.60;;;2.30;;
65373;SDS011;52070;53.760;9.678;2023-05-14T09:06:21;4.53;;;2.30;;
65373;SDS011;52070;53.760;9.678;2023-05-14T09:08:50;2.67;;;2.30;;
65373;SDS011;52070;53.760;9.678;2023-05-14T09:11:17;3.35;;;2.15;;
65373;SDS011;52070;53.760;9.678;2023-05-14T09:13:44;7.57;;;2.47;;
65373;SDS011;52070;53.760;9.678;2023-05-14T09:16:11;3.33;;;2.35;;
65373;SDS011;52070;53.760;9.678;2023-05-14T09:18:39;3.03;;;2.33;;
65373;SDS011;52070;53.760;9.678;2023-05-14T09:21:09;4.22;;;2.33;;
65373;SDS011;52070;53.760;9.678;2023-05-14T09:23:40;3.30;;;2.38;;
65373;SDS011;52070;53.760;9.678;2023-05-14T09:26:07;6.13;;;2.30;;
65373;SDS011;52070;53.760;9.678;2023-05-14T09:28:34;8.02;;;2.60;;
65373;SDS011;52070;53.760;9.678;2023-05-14T09:31:01;6.18;;;2.65;;
65373;SDS011;52070;53.760;9.678;2023-05-14T09:33:28;7.30;;;2.25;;
65373;SDS011;52070;53.760;9.678;2023-05-14T09:35:58;6.05;;;2.58;;
65373;SDS011;52070;53.760;9.678;2023-05-14T09:40:53;4.03;;;2.30;;
65373;SDS011;52070;53.760;9.678;2023-05-14T09:43:21;5.05;;;2.70;;
65373;SDS011;52070;53.760;9.678;2023-05-14T09:45:48;9.05;;;2.30;;
65373;SDS011;52070;53.760;9.678;2023-05-14T09:48:15;9.30;;;2.40;;
65373;SDS011;52070;53.760;9.678;2023-05-14T09:50:42;2.92;;;2.10;;
65373;SDS011;52070;53.760;9.678;2023-05-14T09:53:12;4.20;;;2.33;;
65373;SDS011;52070;53.760;9.678;2023-05-14T09:55:39;3.50;;;2.15;;
65373;SDS011;52070;53.760;9.678;2023-05-14T09:58:06;3.95;;;1.80;;
65373;SDS011;52070;53.760;9.678;2023-05-14T10:00:34;8.55;;;2.35;;
65373;SDS011;52070;53.760;9.678;2023-05-14T10:03:03;5.38;;;2.58;;
65373;SDS011;52070;53.760;9.678;2023-05-14T10:05:32;5.82;;;2.60;;
65373;SDS011;52070;53.760;9.678;2023-05-14T10:08:02;5.37;;;2.30;;
65373;SDS011;52070;53.760;9.678;2023-05-14T10:10:35;3.80;;;2.30;;
65373;SDS011;52070;53.760;9.678;2023-05-14T10:13:04;7.10;;;2.28;;
65373;SDS011;52070;53.760;9.678;2023-05-14T10:15:38;5.85;;;2.30;;
65373;SDS011;52070;53.760;9.678;2023-05-14T10:18:08;4.90;;;2.08;;
65373;SDS011;52070;53.760;9.678;2023-05-14T10:20:36;3.95;;;2.20;;
65373;SDS011;52070;53.760;9.678;2023-05-14T10:23:05;4.28;;;2.25;;
65373;SDS011;52070;53.760;9.678;2023-05-14T10:25:33;7.65;;;2.55;;
65373;SDS011;52070;53.760;9.678;2023-05-14T10:28:02;4.05;;;2.35;;
65373;SDS011;52070;53.760;9.678;2023-05-14T10:30:30;5.80;;;2.27;;
65373;SDS011;52070;53.760;9.678;2023-05-14T10:33:07;4.88;;;1.95;;
65373;SDS011;52070;53.760;9.678;2023-05-14T10:35:50;5.00;;;2.22;;
65373;SDS011;52070;53.760;9.678;2023-05-14T10:38:24;3.38;;;2.10;;
65373;SDS011;52070;53.760;9.678;2023-05-14T10:40:56;6.63;;;2.20;;
65373;SDS011;52070;53.760;9.678;2023-05-14T10:43:27;4.60;;;2.10;;
65373;SDS011;52070;53.760;9.678;2023-05-14T10:45:55;7.30;;;2.08;;
65373;SDS011;52070;53.760;9.678;2023-05-14T10:48:24;4.15;;;1.95;;
65373;SDS011;52070;53.760;9.678;2023-05-14T10:50:51;5.32;;;2.17;;
65373;SDS011;52070;53.760;9.678;2023-05-14T10:53:19;5.03;;;2.10;;
65373;SDS011;52070;53.760;9.678;2023-05-14T10:55:46;4.10;;;1.92;;
65373;SDS011;52070;53.760;9.678;2023-05-14T10:58:14;4.40;;;2.00;;
65373;SDS011;52070;53.760;9.678;2023-05-14T11:00:42;6.53;;;2.20;;
65373;SDS011;52070;53.760;9.678;2023-05-14T11:03:13;6.03;;;2.10;;
65373;SDS011;52070;53.760;9.678;2023-05-14T11:05:41;4.10;;;2.10;;
65373;SDS011;52070;53.760;9.678;2023-05-14T11:08:08;5.45;;;2.50;;
65373;SDS011;52070;53.760;9.678;2023-05-14T11:10:35;3.30;;;2.22;;
65373;SDS011;52070;53.760;9.678;2023-05-14T11:13:04;2.80;;;2.00;;
65373;SDS011;52070;53.760;9.678;2023-05-14T11:15:31;5.78;;;2.20;;
65373;SDS011;52070;53.760;9.678;2023-05-14T11:18:00;5.05;;;2.28;;
65373;SDS011;52070;53.760;9.678;2023-05-14T11:20:27;6.05;;;2.05;;
65373;SDS011;52070;53.760;9.678;2023-05-14T11:22:54;7.00;;;1.80;;
65373;SDS011;52070;53.760;9.678;2023-05-14T11:25:21;10.43;;;1.92;;
65373;SDS011;52070;53.760;9.678;2023-05-14T11:27:50;3.95;;;2.10;;
65373;SDS011;52070;53.760;9.678;2023-05-14T11:30:20;4.00;;;1.95;;
65373;SDS011;52070;53.760;9.678;2023-05-14T11:32:47;5.75;;;2.22;;
65373;SDS011;52070;53.760;9.678;2023-05-14T11:35:16;9.07;;;2.22;;
65373;SDS011;52070;53.760;9.678;2023-05-14T11:37:48;3.55;;;1.90;;
65373;SDS011;52070;53.760;9.678;2023-05-14T11:40:16;3.28;;;1.90;;
65373;SDS011;52070;53.760;9.678;2023-05-14T11:42:43;8.75;;;1.83;;
65373;SDS011;52070;53.760;9.678;2023-05-14T11:45:11;6.88;;;1.85;;
65373;SDS011;52070;53.760;9.678;2023-05-14T11:47:39;6.78;;;2.00;;
65373;SDS011;52070;53.760;9.678;2023-05-14T11:50:07;2.63;;;1.90;;
65373;SDS011;52070;53.760;9.678;2023-05-14T11:52:37;4.32;;;2.10;;
65373;SDS011;52070;53.760;9.678;2023-05-14T11:55:09;6.05;;;2.25;;
65373;SDS011;52070;53.760;9.678;2023-05-14T11:57:37;6.78;;;2.10;;
65373;SDS011;52070;53.760;9.678;2023-05-14T12:00:06;2.75;;;2.10;;
65373;SDS011;52070;53.760;9.678;2023-05-14T12:02:34;3.85;;;2.05;;
65373;SDS011;52070;53.760;9.678;2023-05-14T12:05:03;6.85;;;2.15;;
65373;SDS011;52070;53.760;9.678;2023-05-14T12:07:31;9.00;;;2.25;;
65373;SDS011;52070;53.760;9.678;2023-05-14T12:10:01;3.92;;;2.00;;
65373;SDS011;52070;53.760;9.678;2023-05-14T12:12:32;5.20;;;2.17;;
65373;SDS011;52070;53.760;9.678;2023-05-14T12:15:00;5.10;;;2.10;;
65373;SDS011;52070;53.760;9.678;2023-05-14T12:17:27;4.68;;;2.10;;
65373;SDS011;52070;53.760;9.678;2023-05-14T12:19:54;8.15;;;2.30;;
65373;SDS011;52070;53.760;9.678;2023-05-14T12:22:22;4.72;;;2.03;;
65373;SDS011;52070;53.760;9.678;2023-05-14T12:24:52;5.32;;;2.20;;
65373;SDS011;52070;53.760;9.678;2023-05-14T12:27:21;3.58;;;2.17;;
65373;SDS011;52070;53.760;9.678;2023-05-14T12:29:49;9.00;;;2.40;;
65373;SDS011;52070;53.760;9.678;2023-05-14T12:32:17;3.53;;;2.15;;
65373;SDS011;52070;53.760;9.678;2023-05-14T12:34:45;3.72;;;2.20;;
65373;SDS011;52070;53.760;9.678;2023-05-14T12:37:13;5.40;;;2.30;;
65373;SDS011;52070;53.760;9.678;2023-05-14T12:39:39;5.00;;;2.05;;
65373;SDS011;52070;53.760;9.678;2023-05-14T12:42:06;4.43;;;2.22;;
65373;SDS011;52070;53.760;9.678;2023-05-14T12:44:35;4.20;;;2.42;;
65373;SDS011;52070;53.760;9.678;2023-05-14T12:47:02;4.38;;;1.98;;
65373;SDS011;52070;53.760;9.678;2023-05-14T12:49:29;5.72;;;2.10;;
65373;SDS011;52070;53.760;9.678;2023-05-14T12:51:55;5.50;;;2.20;;
65373;SDS011;52070;53.760;9.678;2023-05-14T12:54:22;3.88;;;2.25;;
65373;SDS011;52070;53.760;9.678;2023-05-14T12:56:49;7.90;;;2.60;;
65373;SDS011;52070;53.760;9.678;2023-05-14T12:59:16;4.93;;;2.10;;
65373;SDS011;52070;53.760;9.678;2023-05-14T13:01:45;5.90;;;2.53;;
65373;SDS011;52070;53.760;9.678;2023-05-14T13:04:12;5.82;;;2.42;;
65373;SDS011;52070;53.760;9.678;2023-05-14T13:06:39;4.15;;;2.10;;
65373;SDS011;52070;53.760;9.678;2023-05-14T13:09:06;5.53;;;2.17;;
65373;SDS011;52070;53.760;9.678;2023-05-14T13:11:33;2.70;;;1.95;;
65373;SDS011;52070;53.760;9.678;2023-05-14T13:14:01;6.53;;;2.47;;
65373;SDS011;52070;53.760;9.678;2023-05-14T13:16:28;5.72;;;2.20;;
65373;SDS011;52070;53.760;9.678;2023-05-14T13:18:57;5.28;;;2.30;;
65373;SDS011;52070;53.760;9.678;2023-05-14T13:21:23;2.40;;;2.20;;
65373;SDS011;52070;53.760;9.678;2023-05-14T13:23:50;3.92;;;2.20;;
65373;SDS011;52070;53.760;9.678;2023-05-14T13:26:17;6.50;;;2.28;;
65373;SDS011;52070;53.760;9.678;2023-05-14T13:28:44;2.92;;;2.17;;
65373;SDS011;52070;53.760;9.678;2023-05-14T13:31:11;6.95;;;2.50;;
65373;SDS011;52070;53.760;9.678;2023-05-14T13:33:40;7.70;;;2.40;;
65373;SDS011;52070;53.760;9.678;2023-05-14T13:36:10;5.35;;;2.22;;
65373;SDS011;52070;53.760;9.678;2023-05-14T13:41:05;6.35;;;2.25;;
65373;SDS011;52070;53.760;9.678;2023-05-14T13:43:32;5.82;;;2.35;;
65373;SDS011;52070;53.760;9.678;2023-05-14T13:46:01;3.13;;;2.30;;
65373;SDS011;52070;53.760;9.678;2023-05-14T13:48:29;7.75;;;2.60;;
65373;SDS011;52070;53.760;9.678;2023-05-14T13:50:56;6.38;;;2.28;;
65373;SDS011;52070;53.760;9.678;2023-05-14T13:53:25;3.28;;;2.40;;
65373;SDS011;52070;53.760;9.678;2023-05-14T13:55:52;6.63;;;2.50;;
65373;SDS011;52070;53.760;9.678;2023-05-14T13:58:21;8.90;;;2.70;;
65373;SDS011;52070;53.760;9.678;2023-05-14T14:00:49;6.88;;;2.60;;
65373;SDS011;52070;53.760;9.678;2023-05-14T14:03:16;4.30;;;2.47;;
65373;SDS011;52070;53.760;9.678;2023-05-14T14:05:43;5.72;;;2.92;;
65373;SDS011;52070;53.760;9.678;2023-05-14T14:08:10;5.55;;;2.50;;
65373;SDS011;52070;53.760;9.678;2023-05-14T14:10:38;3.28;;;2.40;;
65373;SDS011;52070;53.760;9.678;2023-05-14T14:13:06;5.60;;;2.70;;
65373;SDS011;52070;53.760;9.678;2023-05-14T14:15:34;5.47;;;2.45;;
65373;SDS011;52070;53.760;9.678;2023-05-14T14:18:01;9.98;;;2.70;;
65373;SDS011;52070;53.760;9.678;2023-05-14T14:20:28;8.82;;;2.40;;
65373;SDS011;52070;53.760;9.678;2023-05-14T14:22:55;9.73;;;2.92;;
65373;SDS011;52070;53.760;9.678;2023-05-14T14:25:22;3.15;;;2.40;;
65373;SDS011;52070;53.760;9.678;2023-05-14T14:27:50;4.78;;;2.47;;
65373;SDS011;52070;53.760;9.678;2023-05-14T14:30:17;6.90;;;2.70;;
65373;SDS011;52070;53.760;9.678;2023-05-14T14:32:45;4.25;;;2.50;;
65373;SDS011;52070;53.760;9.678;2023-05-14T14:35:13;5.07;;;2.58;;
65373;SDS011;52070;53.760;9.678;2023-05-14T14:37:41;3.70;;;2.38;;
65373;SDS011;52070;53.760;9.678;2023-05-14T14:40:13;5.85;;;2.22;;
65373;SDS011;52070;53.760;9.678;2023-05-14T14:42:40;3.70;;;2.17;;
65373;SDS011;52070;53.760;9.678;2023-05-14T14:45:09;2.13;;;1.83;;
65373;SDS011;52070;53.760;9.678;2023-05-14T14:47:36;4.30;;;2.30;;
65373;SDS011;52070;53.760;9.678;2023-05-14T14:50:03;3.80;;;2.22;;
65373;SDS011;52070;53.760;9.678;2023-05-14T14:52:31;3.47;;;2.00;;
65373;SDS011;52070;53.760;9.678;2023-05-14T14:54:58;6.40;;;2.25;;
65373;SDS011;52070;53.760;9.678;2023-05-14T14:57:25;3.85;;;2.10;;